createdAt,value
2018-09-29T00:00:10.224Z,9.70
2018-09-29T00:01:45.784Z,9.60
2018-09-29T00:03:21.406Z,9.57
2018-09-29T00:04:56.880Z,9.47
2018-09-29T00:06:32.351Z,9.46
2018-09-29T00:08:08.173Z,9.45
2018-09-29T00:09:44.119Z,9.57
2018-09-29T00:11:19.724Z,9.46
2018-09-29T00:12:55.225Z,9.48
2018-09-29T00:14:31.006Z,9.60
2018-09-29T00:16:06.895Z,9.70
2018-09-29T00:17:42.426Z,9.68
2018-09-29T00:19:18.120Z,9.44
2018-09-29T00:20:53.666Z,9.24
2018-09-29T00:22:29.143Z,9.28
2018-09-29T00:24:04.791Z,9.22
2018-09-29T00:25:40.335Z,9.18
2018-09-29T00:27:15.794Z,9.03
2018-09-29T00:28:51.317Z,9.04
2018-09-29T00:30:26.866Z,9.21
2018-09-29T00:32:02.390Z,9.28
2018-09-29T00:33:38.317Z,9.35
2018-09-29T00:35:13.830Z,9.33
2018-09-29T00:36:49.330Z,9.42
2018-09-29T00:38:24.868Z,9.40
2018-09-29T00:40:00.341Z,9.40
2018-09-29T00:41:35.908Z,9.51
2018-09-29T00:43:11.382Z,9.56
2018-09-29T00:44:47.356Z,9.46
2018-09-29T00:46:22.934Z,9.47
2018-09-29T00:47:58.427Z,9.41
2018-09-29T00:49:34.004Z,9.23
2018-09-29T00:51:09.682Z,9.26
2018-09-29T00:52:45.174Z,9.38
2018-09-29T00:54:20.895Z,9.47
2018-09-29T00:55:56.416Z,9.40
2018-09-29T00:57:32.140Z,9.48
2018-09-29T00:59:07.576Z,9.35
2018-09-29T01:00:43.042Z,9.32
2018-09-29T01:02:18.731Z,9.33
2018-09-29T01:03:54.275Z,9.39
2018-09-29T01:05:29.766Z,9.55
2018-09-29T01:07:05.322Z,9.59
2018-09-29T01:08:40.916Z,9.55
2018-09-29T01:10:17.410Z,9.40
2018-09-29T01:11:52.915Z,9.22
2018-09-29T01:13:28.469Z,9.29
2018-09-29T01:15:03.954Z,9.36
2018-09-29T01:16:39.437Z,9.38
2018-09-29T01:18:15.916Z,9.42
2018-09-29T01:19:51.472Z,9.39
2018-09-29T01:21:27.088Z,9.39
2018-09-29T01:23:02.612Z,9.34
2018-09-29T01:24:38.130Z,9.34
2018-09-29T01:26:13.612Z,9.36
2018-09-29T01:27:49.138Z,9.39
2018-09-29T01:29:24.674Z,9.20
2018-09-29T01:31:00.160Z,9.12
2018-09-29T01:32:35.688Z,8.69
2018-09-29T01:34:11.323Z,9.16
2018-09-29T01:35:46.870Z,8.97
2018-09-29T01:37:22.415Z,8.99
2018-09-29T01:38:57.862Z,9.02
2018-09-29T01:40:33.405Z,9.01
2018-09-29T01:42:08.939Z,9.03
2018-09-29T01:43:44.464Z,9.06
2018-09-29T01:45:20.123Z,8.98
2018-09-29T01:46:55.730Z,8.88
2018-09-29T01:48:31.219Z,8.97
2018-09-29T01:50:06.718Z,8.94
2018-09-29T01:51:42.263Z,8.77
2018-09-29T01:53:17.774Z,8.86
2018-09-29T01:54:53.331Z,8.89
2018-09-29T01:56:29.204Z,8.86
2018-09-29T01:58:08.398Z,8.94
2018-09-29T01:59:43.887Z,8.90
2018-09-29T02:01:19.356Z,8.76
2018-09-29T02:02:55.091Z,8.72
2018-09-29T02:04:30.649Z,8.73
2018-09-29T02:06:06.697Z,8.78
2018-09-29T02:07:42.321Z,8.66
2018-09-29T02:09:17.877Z,8.75
2018-09-29T02:10:53.384Z,8.59
2018-09-29T02:12:28.930Z,8.56
2018-09-29T02:14:04.648Z,8.68
2018-09-29T02:15:40.142Z,8.77
2018-09-29T02:17:15.594Z,8.80
2018-09-29T02:18:51.296Z,8.79
2018-09-29T02:20:26.957Z,8.74
2018-09-29T02:22:02.524Z,8.72
2018-09-29T02:23:38.048Z,8.64
2018-09-29T02:25:13.472Z,8.61
2018-09-29T02:26:48.964Z,8.52
2018-09-29T02:28:24.419Z,8.59
2018-09-29T02:29:59.895Z,8.58
2018-09-29T02:31:35.452Z,8.55
2018-09-29T02:33:10.957Z,8.51
2018-09-29T02:34:46.466Z,8.41
2018-09-29T02:36:21.989Z,8.36
2018-09-29T02:37:57.454Z,8.18
2018-09-29T02:39:32.944Z,8.13
2018-09-29T02:41:08.419Z,8.04
2018-09-29T02:42:43.886Z,7.59
2018-09-29T02:44:19.758Z,8.20
2018-09-29T02:45:55.305Z,8.21
2018-09-29T02:47:30.839Z,8.31
2018-09-29T02:49:06.291Z,8.13
2018-09-29T02:50:41.868Z,8.29
2018-09-29T02:52:17.423Z,8.09
2018-09-29T02:53:52.962Z,8.21
2018-09-29T02:55:28.431Z,8.22
2018-09-29T02:57:03.927Z,8.29
2018-09-29T02:58:39.852Z,8.30
2018-09-29T03:00:15.312Z,8.30
2018-09-29T03:01:50.789Z,8.30
2018-09-29T03:03:26.303Z,8.17
2018-09-29T03:05:01.772Z,8.04
2018-09-29T03:06:37.499Z,7.95
2018-09-29T03:08:13.238Z,7.96
2018-09-29T03:09:49.044Z,7.96
2018-09-29T03:11:24.606Z,7.91
2018-09-29T03:13:00.157Z,7.92
2018-09-29T03:14:35.604Z,8.05
2018-09-29T03:16:11.114Z,7.99
2018-09-29T03:17:46.619Z,8.02
2018-09-29T03:19:22.162Z,7.96
2018-09-29T03:20:57.661Z,8.04
2018-09-29T03:22:33.118Z,8.12
2018-09-29T03:24:08.626Z,8.15
2018-09-29T03:25:44.085Z,8.07
2018-09-29T03:27:19.624Z,8.01
2018-09-29T03:28:55.144Z,8.08
2018-09-29T03:30:30.629Z,8.10
2018-09-29T03:32:06.326Z,7.85
2018-09-29T03:33:41.846Z,7.91
2018-09-29T03:35:17.327Z,7.82
2018-09-29T03:36:52.817Z,7.97
2018-09-29T03:38:28.350Z,7.91
2018-09-29T03:40:03.816Z,7.85
2018-09-29T03:41:39.573Z,7.83
2018-09-29T03:43:15.044Z,7.90
2018-09-29T03:44:50.587Z,7.87
2018-09-29T03:46:26.321Z,7.87
2018-09-29T03:48:01.853Z,7.84
2018-09-29T03:49:37.360Z,7.98
2018-09-29T03:51:12.915Z,7.95
2018-09-29T03:52:48.330Z,7.95
2018-09-29T03:54:23.836Z,7.80
2018-09-29T03:55:59.331Z,7.82
2018-09-29T03:57:34.925Z,7.88
2018-09-29T03:59:10.428Z,7.79
2018-09-29T04:00:45.985Z,7.70
2018-09-29T04:02:21.593Z,7.75
2018-09-29T04:03:57.149Z,7.88
2018-09-29T04:05:32.680Z,7.83
2018-09-29T04:07:08.186Z,7.74
2018-09-29T04:08:43.890Z,7.65
2018-09-29T04:10:19.363Z,7.57
2018-09-29T04:11:54.809Z,7.56
2018-09-29T04:13:30.336Z,7.57
2018-09-29T04:15:06.217Z,7.61
2018-09-29T04:16:41.672Z,7.60
2018-09-29T04:18:17.168Z,7.47
2018-09-29T04:19:53.101Z,7.25
2018-09-29T04:21:33.022Z,7.30
2018-09-29T04:23:08.543Z,7.40
2018-09-29T04:24:44.057Z,7.21
2018-09-29T04:26:19.593Z,7.54
2018-09-29T04:27:55.306Z,7.63
2018-09-29T04:29:30.883Z,7.69
2018-09-29T04:31:06.425Z,7.66
2018-09-29T04:32:41.950Z,7.67
2018-09-29T04:34:17.434Z,7.50
2018-09-29T04:35:53.060Z,7.36
2018-09-29T04:37:28.615Z,7.22
2018-09-29T04:39:05.401Z,7.56
2018-09-29T04:40:40.929Z,7.69
2018-09-29T04:42:16.616Z,7.80
2018-09-29T04:43:52.229Z,8.00
2018-09-29T04:45:27.836Z,8.14
2018-09-29T04:47:03.351Z,8.16
2018-09-29T04:48:38.854Z,8.19
2018-09-29T04:50:14.365Z,8.23
2018-09-29T04:51:49.913Z,8.30
2018-09-29T04:53:25.433Z,8.22
2018-09-29T04:55:01.015Z,8.18
2018-09-29T04:56:36.523Z,8.15
2018-09-29T04:58:12.007Z,8.17
2018-09-29T04:59:47.761Z,8.13
2018-09-29T05:01:23.323Z,8.02
2018-09-29T05:02:59.351Z,8.01
2018-09-29T05:04:34.881Z,7.96
2018-09-29T05:06:10.336Z,7.97
2018-09-29T05:07:45.838Z,7.93
2018-09-29T05:09:21.300Z,7.82
2018-09-29T05:10:56.990Z,7.85
2018-09-29T05:12:32.585Z,7.77
2018-09-29T05:14:08.109Z,7.75
2018-09-29T05:15:43.593Z,7.76
2018-09-29T05:17:19.136Z,7.68
2018-09-29T05:18:54.968Z,7.69
2018-09-29T05:20:30.495Z,7.76
2018-09-29T05:22:06.227Z,7.76
2018-09-29T05:23:41.989Z,7.75
2018-09-29T05:25:17.613Z,6.60
2018-09-29T05:26:53.171Z,7.91
2018-09-29T05:28:28.717Z,7.79
2018-09-29T05:30:06.073Z,7.76
2018-09-29T05:31:41.532Z,7.92
2018-09-29T05:33:17.181Z,7.92
2018-09-29T05:34:52.798Z,7.98
2018-09-29T05:36:28.541Z,8.01
2018-09-29T05:38:04.080Z,8.08
2018-09-29T05:39:39.821Z,8.06
2018-09-29T05:41:15.267Z,8.23
2018-09-29T05:42:51.536Z,8.36
2018-09-29T05:44:27.281Z,8.48
2018-09-29T05:46:02.900Z,8.48
2018-09-29T05:47:38.468Z,8.53
2018-09-29T05:49:14.088Z,8.61
2018-09-29T05:50:50.390Z,8.70
2018-09-29T05:52:25.937Z,8.73
2018-09-29T05:54:01.734Z,8.86
2018-09-29T05:55:37.188Z,8.91
2018-09-29T05:57:12.717Z,9.03
2018-09-29T05:58:48.250Z,9.15
2018-09-29T06:00:23.797Z,9.23
2018-09-29T06:01:59.240Z,9.22
2018-09-29T06:03:34.980Z,9.28
2018-09-29T06:05:21.856Z,8.95
2018-09-29T06:06:57.914Z,9.32
2018-09-29T06:08:33.494Z,9.29
2018-09-29T06:10:09.001Z,9.34
2018-09-29T06:11:44.450Z,9.36
2018-09-29T06:13:20.009Z,9.41
2018-09-29T06:14:55.416Z,9.48
2018-09-29T06:16:31.011Z,9.52
2018-09-29T06:18:06.513Z,9.59
2018-09-29T06:19:42.030Z,9.57
2018-09-29T06:21:17.644Z,9.57
2018-09-29T06:22:53.162Z,9.54
2018-09-29T06:24:28.681Z,9.55
2018-09-29T06:26:04.190Z,9.60
2018-09-29T06:27:39.952Z,9.70
2018-09-29T06:29:15.528Z,9.76
2018-09-29T06:30:52.368Z,9.81
2018-09-29T06:32:27.880Z,9.88
2018-09-29T06:34:04.524Z,9.87
2018-09-29T06:35:40.320Z,9.88
2018-09-29T06:37:16.265Z,9.90
2018-09-29T06:38:51.823Z,9.92
2018-09-29T06:40:28.029Z,9.99
2018-09-29T06:42:03.684Z,10.01
2018-09-29T06:43:40.191Z,10.07
2018-09-29T06:45:15.750Z,10.06
2018-09-29T06:46:51.313Z,10.10
2018-09-29T06:48:26.812Z,10.16
2018-09-29T06:50:03.111Z,10.16
2018-09-29T06:51:40.158Z,10.20
2018-09-29T06:53:15.973Z,10.24
2018-09-29T06:54:54.247Z,10.30
2018-09-29T06:56:32.887Z,10.29
2018-09-29T06:58:10.665Z,10.39
2018-09-29T06:59:47.228Z,10.45
2018-09-29T07:01:23.461Z,10.48
2018-09-29T07:03:01.086Z,10.45
2018-09-29T07:04:38.593Z,10.47
2018-09-29T07:06:15.660Z,10.47
2018-09-29T07:07:51.994Z,10.49
2018-09-29T07:09:27.714Z,10.45
2018-09-29T07:11:03.463Z,10.49
2018-09-29T07:12:39.092Z,10.56
2018-09-29T07:14:14.723Z,10.64
2018-09-29T07:15:50.274Z,10.66
2018-09-29T07:17:25.864Z,10.69
2018-09-29T07:19:01.513Z,10.68
2018-09-29T07:20:37.065Z,10.74
2018-09-29T07:22:12.680Z,10.82
2018-09-29T07:23:48.275Z,10.86
2018-09-29T07:25:23.871Z,10.94
2018-09-29T07:26:59.459Z,10.89
2018-09-29T07:28:35.025Z,11.01
2018-09-29T07:30:10.547Z,11.03
2018-09-29T07:31:46.138Z,11.14
2018-09-29T07:33:21.716Z,11.18
2018-09-29T07:34:57.205Z,11.21
2018-09-29T07:36:32.699Z,11.25
2018-09-29T07:38:08.237Z,10.83
2018-09-29T07:39:43.694Z,11.35
2018-09-29T07:41:19.542Z,11.44
2018-09-29T07:42:55.049Z,11.54
2018-09-29T07:44:30.525Z,11.61
2018-09-29T07:46:06.030Z,11.67
2018-09-29T07:47:41.578Z,11.69
2018-09-29T07:49:17.289Z,11.72
2018-09-29T07:50:53.208Z,11.78
2018-09-29T07:52:28.739Z,11.76
2018-09-29T07:54:04.254Z,11.64
2018-09-29T07:55:39.823Z,11.76
2018-09-29T07:57:15.461Z,11.91
2018-09-29T07:58:50.911Z,11.94
2018-09-29T08:00:26.442Z,11.94
2018-09-29T08:02:01.898Z,11.85
2018-09-29T08:03:37.378Z,11.98
2018-09-29T08:05:12.825Z,11.97
2018-09-29T08:06:48.297Z,11.96
2018-09-29T08:08:23.811Z,12.03
2018-09-29T08:10:00.302Z,12.06
2018-09-29T08:11:35.832Z,12.02
2018-09-29T08:13:11.411Z,11.88
2018-09-29T08:14:47.202Z,11.64
2018-09-29T08:16:22.692Z,11.74
2018-09-29T08:17:58.167Z,12.00
2018-09-29T08:19:33.634Z,11.98
2018-09-29T08:21:09.131Z,12.12
2018-09-29T08:22:44.600Z,12.10
2018-09-29T08:24:20.179Z,12.23
2018-09-29T08:25:55.645Z,12.40
2018-09-29T08:27:31.115Z,12.02
2018-09-29T08:29:06.575Z,12.11
2018-09-29T08:30:42.076Z,12.09
2018-09-29T08:32:17.704Z,12.05
2018-09-29T08:33:53.149Z,11.90
2018-09-29T08:35:28.677Z,12.15
2018-09-29T08:37:04.216Z,12.17
2018-09-29T08:38:39.659Z,12.22
2018-09-29T08:40:15.195Z,12.30
2018-09-29T08:41:50.644Z,12.30
2018-09-29T08:43:26.173Z,12.43
2018-09-29T08:45:01.635Z,12.49
2018-09-29T08:46:37.105Z,12.52
2018-09-29T08:48:12.559Z,12.60
2018-09-29T08:49:48.089Z,12.59
2018-09-29T08:51:23.634Z,12.72
2018-09-29T08:52:59.103Z,12.48
2018-09-29T08:54:35.005Z,12.75
2018-09-29T08:56:10.485Z,12.85
2018-09-29T08:57:45.974Z,12.93
2018-09-29T08:59:21.431Z,13.01
2018-09-29T09:00:56.936Z,13.05
2018-09-29T09:02:32.414Z,13.05
2018-09-29T09:04:07.965Z,13.10
2018-09-29T09:05:43.369Z,13.17
2018-09-29T09:07:20.156Z,13.26
2018-09-29T09:08:55.600Z,13.12
2018-09-29T09:10:31.143Z,12.99
2018-09-29T09:12:06.688Z,13.07
2018-09-29T09:13:43.158Z,13.31
2018-09-29T09:15:18.722Z,13.39
2018-09-29T09:16:54.240Z,13.34
2018-09-29T09:18:29.676Z,13.39
2018-09-29T09:20:05.241Z,13.51
2018-09-29T09:21:40.774Z,13.58
2018-09-29T09:23:16.295Z,13.56
2018-09-29T09:24:51.982Z,13.70
2018-09-29T09:26:28.541Z,13.67
2018-09-29T09:28:04.024Z,13.68
2018-09-29T09:29:40.025Z,13.77
2018-09-29T09:31:30.191Z,13.84
2018-09-29T09:33:05.718Z,13.86
2018-09-29T09:34:41.260Z,13.67
2018-09-29T09:36:16.784Z,13.65
2018-09-29T09:37:52.289Z,13.74
2018-09-29T09:39:27.759Z,13.82
2018-09-29T09:41:03.244Z,13.91
2018-09-29T09:42:38.758Z,13.95
2018-09-29T09:44:14.344Z,13.87
2018-09-29T09:45:50.079Z,13.53
2018-09-29T09:47:25.663Z,13.50
2018-09-29T09:49:01.199Z,13.64
2018-09-29T09:50:36.658Z,13.69
2018-09-29T09:52:12.138Z,13.96
2018-09-29T09:53:47.614Z,14.10
2018-09-29T09:55:23.117Z,13.94
2018-09-29T09:56:58.634Z,13.99
2018-09-29T09:58:34.243Z,14.03
2018-09-29T10:00:09.873Z,14.07
2018-09-29T10:01:55.046Z,14.05
2018-09-29T10:03:32.874Z,14.24
2018-09-29T10:05:11.649Z,14.31
2018-09-29T10:06:48.106Z,14.17
2018-09-29T10:08:23.564Z,14.38
2018-09-29T10:09:59.327Z,14.24
2018-09-29T10:11:34.939Z,14.38
2018-09-29T10:13:20.944Z,14.41
2018-09-29T10:14:57.307Z,14.40
2018-09-29T10:16:35.310Z,14.61
2018-09-29T10:18:10.789Z,14.72
2018-09-29T10:19:47.043Z,14.30
2018-09-29T10:21:24.039Z,14.38
2018-09-29T10:22:59.595Z,14.57
2018-09-29T10:24:35.322Z,14.45
2018-09-29T10:26:10.770Z,14.59
2018-09-29T10:27:47.133Z,14.58
2018-09-29T10:29:22.700Z,14.69
2018-09-29T10:30:58.198Z,14.71
2018-09-29T10:32:35.123Z,14.82
2018-09-29T10:34:10.811Z,14.75
2018-09-29T10:35:46.323Z,15.03
2018-09-29T10:37:21.807Z,15.13
2018-09-29T10:39:09.890Z,15.26
2018-09-29T10:40:46.860Z,15.48
2018-09-29T10:42:22.537Z,15.58
2018-09-29T10:43:58.730Z,15.41
2018-09-29T10:45:35.160Z,15.23
2018-09-29T10:47:10.862Z,15.32
2018-09-29T10:48:47.023Z,15.16
2018-09-29T10:50:22.574Z,15.40
2018-09-29T10:52:00.139Z,15.42
2018-09-29T10:53:35.954Z,15.39
2018-09-29T10:55:11.585Z,15.41
2018-09-29T10:56:48.759Z,15.11
2018-09-29T10:58:26.421Z,14.95
2018-09-29T11:00:02.013Z,15.02
2018-09-29T11:01:37.585Z,15.10
2018-09-29T11:03:13.188Z,15.29
2018-09-29T11:04:48.794Z,15.36
2018-09-29T11:06:25.653Z,15.52
2018-09-29T11:08:04.912Z,15.49
2018-09-29T11:09:40.427Z,15.32
2018-09-29T11:11:16.032Z,15.39
2018-09-29T11:12:51.610Z,15.35
2018-09-29T11:14:27.245Z,15.69
2018-09-29T11:16:02.792Z,15.55
2018-09-29T11:17:38.391Z,15.65
2018-09-29T11:19:13.939Z,15.71
2018-09-29T11:20:49.644Z,15.67
2018-09-29T11:22:25.181Z,15.70
2018-09-29T11:24:00.851Z,15.68
2018-09-29T11:25:36.504Z,15.59
2018-09-29T11:27:12.148Z,15.58
2018-09-29T11:28:48.438Z,15.54
2018-09-29T11:30:23.963Z,15.40
2018-09-29T11:31:59.850Z,15.49
2018-09-29T11:33:35.414Z,15.46
2018-09-29T11:35:11.161Z,15.65
2018-09-29T11:36:46.699Z,15.80
2018-09-29T11:38:23.653Z,15.52
2018-09-29T11:39:59.187Z,15.57
2018-09-29T11:41:34.754Z,15.73
2018-09-29T11:43:11.752Z,15.82
2018-09-29T11:44:47.390Z,15.84
2018-09-29T11:46:23.797Z,15.95
2018-09-29T11:47:59.352Z,16.08
2018-09-29T11:49:34.842Z,16.21
2018-09-29T11:51:11.198Z,16.31
2018-09-29T11:52:46.811Z,16.33
2018-09-29T11:54:22.555Z,16.23
2018-09-29T11:55:59.519Z,16.27
2018-09-29T11:57:35.055Z,16.55
2018-09-29T11:59:10.566Z,16.69
2018-09-29T12:00:46.210Z,16.68
2018-09-29T12:02:24.958Z,16.42
2018-09-29T12:04:00.684Z,16.16
2018-09-29T12:05:36.288Z,16.03
2018-09-29T12:07:11.888Z,16.05
2018-09-29T12:08:47.446Z,16.04
2018-09-29T12:10:23.081Z,15.94
2018-09-29T12:11:58.606Z,16.08
2018-09-29T12:13:34.098Z,16.21
2018-09-29T12:15:09.598Z,16.21
2018-09-29T12:16:45.117Z,16.04
2018-09-29T12:18:20.771Z,16.10
2018-09-29T12:19:57.391Z,16.34
2018-09-29T12:21:32.882Z,16.12
2018-09-29T12:23:08.357Z,16.05
2018-09-29T12:24:43.799Z,16.43
2018-09-29T12:26:19.535Z,16.65
2018-09-29T12:27:55.149Z,16.72
2018-09-29T12:31:21.007Z,16.52
2018-09-29T12:32:56.549Z,16.43
2018-09-29T12:34:32.223Z,16.53
2018-09-29T12:36:08.172Z,16.59
2018-09-29T12:37:43.718Z,16.59
2018-09-29T12:39:19.166Z,16.78
2018-09-29T12:41:12.555Z,16.95
2018-09-29T12:42:48.014Z,16.87
2018-09-29T12:44:23.711Z,16.66
2018-09-29T12:45:59.126Z,16.62
2018-09-29T12:47:34.607Z,16.91
2018-09-29T12:49:10.110Z,17.08
2018-09-29T12:50:45.955Z,17.14
2018-09-29T12:52:21.488Z,17.16
2018-09-29T12:53:57.390Z,16.91
2018-09-29T12:55:32.907Z,17.04
2018-09-29T12:57:08.379Z,17.09
2018-09-29T12:58:43.901Z,16.98
2018-09-29T13:00:19.367Z,16.84
2018-09-29T13:01:54.860Z,16.72
2018-09-29T13:03:30.327Z,16.54
2018-09-29T13:05:05.969Z,16.72
2018-09-29T13:06:41.456Z,16.66
2018-09-29T13:08:19.523Z,16.51
2018-09-29T13:09:58.106Z,16.30
2018-09-29T13:11:35.022Z,16.26
2018-09-29T13:13:10.508Z,16.32
2018-09-29T13:14:46.017Z,16.26
2018-09-29T13:16:21.600Z,16.14
2018-09-29T13:17:57.130Z,16.10
2018-09-29T13:19:32.619Z,16.18
2018-09-29T13:21:08.071Z,16.23
2018-09-29T13:22:43.702Z,16.03
2018-09-29T13:24:19.100Z,16.11
2018-09-29T13:25:54.563Z,16.20
2018-09-29T13:27:30.035Z,16.16
2018-09-29T13:29:05.503Z,16.11
2018-09-29T13:30:40.997Z,16.07
2018-09-29T13:32:16.475Z,15.98
2018-09-29T13:33:51.976Z,16.12
2018-09-29T13:35:27.645Z,16.03
2018-09-29T13:37:03.131Z,15.98
2018-09-29T13:38:38.605Z,15.94
2018-09-29T13:40:14.138Z,16.05
2018-09-29T13:41:49.612Z,16.04
2018-09-29T13:43:25.131Z,15.81
2018-09-29T13:45:00.590Z,16.00
2018-09-29T13:46:36.154Z,15.87
2018-09-29T13:48:11.673Z,16.01
2018-09-29T13:49:47.128Z,15.84
2018-09-29T13:51:22.949Z,16.06
2018-09-29T13:52:58.431Z,16.13
2018-09-29T13:54:34.820Z,16.10
2018-09-29T13:56:10.394Z,16.12
2018-09-29T13:57:45.931Z,16.25
2018-09-29T13:59:21.468Z,16.12
2018-09-29T14:00:57.289Z,16.09
2018-09-29T14:02:32.804Z,16.14
2018-09-29T14:04:08.980Z,16.13
2018-09-29T14:05:44.436Z,15.91
2018-09-29T14:07:20.041Z,15.91
2018-09-29T14:08:55.518Z,15.85
2018-09-29T14:10:31.217Z,15.88
2018-09-29T14:12:07.883Z,16.00
2018-09-29T14:13:43.408Z,15.92
2018-09-29T14:15:18.858Z,15.57
2018-09-29T14:16:54.332Z,16.03
2018-09-29T14:18:29.779Z,15.99
2018-09-29T14:20:06.768Z,16.00
2018-09-29T14:21:42.299Z,16.06
2018-09-29T14:23:17.789Z,16.25
2018-09-29T14:24:53.242Z,16.21
2018-09-29T14:26:28.784Z,15.96
2018-09-29T14:28:04.287Z,16.05
2018-09-29T14:29:40.116Z,16.07
2018-09-29T14:31:15.585Z,16.16
2018-09-29T14:32:51.117Z,16.11
2018-09-29T14:34:26.613Z,16.20
2018-09-29T14:36:02.131Z,16.28
2018-09-29T14:37:37.713Z,15.95
2018-09-29T14:39:13.446Z,15.99
2018-09-29T14:40:48.968Z,15.88
2018-09-29T14:42:26.536Z,15.88
2018-09-29T14:44:02.305Z,15.89
2018-09-29T14:45:37.954Z,16.00
2018-09-29T14:47:13.480Z,15.99
2018-09-29T14:48:48.945Z,15.95
2018-09-29T14:50:24.488Z,15.78
2018-09-29T14:52:00.028Z,15.81
2018-09-29T14:53:35.541Z,15.94
2018-09-29T14:55:10.999Z,15.94
2018-09-29T14:56:46.646Z,15.99
2018-09-29T14:58:22.156Z,16.06
2018-09-29T14:59:57.730Z,16.01
2018-09-29T15:01:33.258Z,15.98
2018-09-29T15:03:09.353Z,15.87
2018-09-29T15:04:44.836Z,15.86
2018-09-29T15:06:20.476Z,15.89
2018-09-29T15:07:56.015Z,15.92
2018-09-29T15:09:31.671Z,15.92
2018-09-29T15:11:08.050Z,15.93
2018-09-29T15:12:43.748Z,15.90
2018-09-29T15:14:19.838Z,15.83
2018-09-29T15:15:55.398Z,15.66
2018-09-29T15:17:31.352Z,15.67
2018-09-29T15:19:06.965Z,15.72
2018-09-29T15:20:42.500Z,15.75
2018-09-29T15:22:18.135Z,15.58
2018-09-29T15:23:53.676Z,15.46
2018-09-29T15:25:30.301Z,15.31
2018-09-29T15:27:06.086Z,15.19
2018-09-29T15:28:41.740Z,15.31
2018-09-29T15:30:17.309Z,15.34
2018-09-29T15:31:52.833Z,15.28
2018-09-29T15:33:28.485Z,15.37
2018-09-29T15:35:03.989Z,15.20
2018-09-29T15:36:39.848Z,15.18
2018-09-29T15:38:15.347Z,15.13
2018-09-29T15:39:50.922Z,15.21
2018-09-29T15:41:26.464Z,15.23
2018-09-29T15:43:02.097Z,15.23
2018-09-29T15:44:38.494Z,15.17
2018-09-29T15:46:17.908Z,15.07
2018-09-29T15:47:54.460Z,14.96
2018-09-29T15:49:30.117Z,15.04
2018-09-29T15:51:05.921Z,15.10
2018-09-29T15:52:41.638Z,15.08
2018-09-29T15:54:17.520Z,15.04
2018-09-29T15:55:53.188Z,15.04
2018-09-29T15:57:28.826Z,14.94
2018-09-29T15:59:04.424Z,14.72
2018-09-29T16:00:39.963Z,14.48
2018-09-29T16:02:15.560Z,14.42
2018-09-29T16:03:51.196Z,14.47
2018-09-29T16:05:26.916Z,14.31
2018-09-29T16:07:02.626Z,14.21
2018-09-29T16:08:38.809Z,14.13
2018-09-29T16:10:15.426Z,13.97
2018-09-29T16:11:51.790Z,13.95
2018-09-29T16:13:31.342Z,13.93
2018-09-29T16:15:09.844Z,13.92
2018-09-29T16:16:45.456Z,13.85
2018-09-29T16:18:21.007Z,13.83
2018-09-29T16:19:56.485Z,13.78
2018-09-29T16:21:33.605Z,13.79
2018-09-29T16:23:09.128Z,13.69
2018-09-29T16:24:45.154Z,13.61
2018-09-29T16:26:21.177Z,13.64
2018-09-29T16:27:58.367Z,13.57
2018-09-29T16:29:34.507Z,13.56
2018-09-29T16:31:10.060Z,13.41
2018-09-29T16:32:45.610Z,13.50
2018-09-29T16:34:21.188Z,13.42
2018-09-29T16:35:56.908Z,13.25
2018-09-29T16:37:32.658Z,13.23
2018-09-29T16:39:14.833Z,13.13
2018-09-29T16:40:50.596Z,13.09
2018-09-29T16:42:38.586Z,13.14
2018-09-29T16:44:17.677Z,13.08
2018-09-29T16:45:54.315Z,13.02
2018-09-29T16:47:30.149Z,12.94
2018-09-29T16:49:07.756Z,12.82
2018-09-29T16:50:45.667Z,11.20
2018-09-29T16:52:21.882Z,12.78
2018-09-29T16:54:00.288Z,12.76
2018-09-29T16:55:37.496Z,12.77
2018-09-29T16:57:13.601Z,12.67
2018-09-29T16:58:49.316Z,12.65
2018-09-29T17:00:25.309Z,12.72
2018-09-29T17:02:03.350Z,12.60
2018-09-29T17:03:42.161Z,12.57
2018-09-29T17:05:21.600Z,12.51
2018-09-29T17:06:57.153Z,12.43
2018-09-29T17:08:32.773Z,12.42
2018-09-29T17:10:08.687Z,12.46
2018-09-29T17:11:48.850Z,12.44
2018-09-29T17:13:24.483Z,12.31
2018-09-29T17:15:06.853Z,12.21
2018-09-29T17:16:45.375Z,12.24
2018-09-29T17:18:22.283Z,12.22
2018-09-29T17:19:57.903Z,12.07
2018-09-29T17:21:33.613Z,12.04
2018-09-29T17:23:09.214Z,12.07
2018-09-29T17:24:44.756Z,11.94
2018-09-29T17:26:20.277Z,11.91
2018-09-29T17:27:56.696Z,11.94
2018-09-29T17:29:33.310Z,11.90
2018-09-29T17:31:08.926Z,11.82
2018-09-29T17:32:45.484Z,11.73
2018-09-29T17:34:21.036Z,11.80
2018-09-29T17:36:06.370Z,11.75
2018-09-29T17:37:46.389Z,11.61
2018-09-29T17:39:22.062Z,11.55
2018-09-29T17:40:57.692Z,11.55
2018-09-29T17:42:33.256Z,11.55
2018-09-29T17:44:08.906Z,11.53
2018-09-29T17:45:44.417Z,11.44
2018-09-29T17:47:20.198Z,11.47
2018-09-29T17:48:55.993Z,11.51
2018-09-29T17:50:31.728Z,11.40
2018-09-29T17:52:07.246Z,11.30
2018-09-29T17:53:42.791Z,11.38
2018-09-29T17:55:18.277Z,11.45
2018-09-29T17:56:53.735Z,11.49
2018-09-29T17:58:30.130Z,11.48
2018-09-29T18:00:05.636Z,11.35
2018-09-29T18:01:41.660Z,11.24
2018-09-29T18:03:17.138Z,11.22
2018-09-29T18:04:52.682Z,11.23
2018-09-29T18:06:28.579Z,11.20
2018-09-29T18:08:04.177Z,11.25
2018-09-29T18:09:39.825Z,11.19
2018-09-29T18:11:15.840Z,11.24
2018-09-29T18:12:51.513Z,11.22
2018-09-29T18:14:27.471Z,11.12
2018-09-29T18:16:03.462Z,11.08
2018-09-29T18:17:40.106Z,10.89
2018-09-29T18:19:16.432Z,11.01
2018-09-29T18:20:52.430Z,10.98
2018-09-29T18:22:28.182Z,10.85
2018-09-29T18:24:03.903Z,10.90
2018-09-29T18:25:40.183Z,10.79
2018-09-29T18:27:15.688Z,10.69
2018-09-29T18:28:51.343Z,10.82
2018-09-29T18:30:28.098Z,10.96
2018-09-29T18:32:03.759Z,10.82
2018-09-29T18:33:39.781Z,10.74
2018-09-29T18:35:15.347Z,10.79
2018-09-29T18:36:51.161Z,10.77
2018-09-29T18:38:26.715Z,10.83
2018-09-29T18:40:02.487Z,10.79
2018-09-29T18:41:38.416Z,10.70
2018-09-29T18:43:14.007Z,10.60
2018-09-29T18:44:49.551Z,10.71
2018-09-29T18:46:26.017Z,10.57
2018-09-29T18:48:01.636Z,10.44
2018-09-29T18:49:37.459Z,10.56
2018-09-29T18:51:13.220Z,10.61
2018-09-29T18:52:48.694Z,10.57
2018-09-29T18:54:24.887Z,10.55
2018-09-29T18:56:00.498Z,10.60
2018-09-29T18:57:36.031Z,10.62
2018-09-29T18:59:11.595Z,10.57
2018-09-29T19:00:47.638Z,10.41
2018-09-29T19:02:23.526Z,10.37
2018-09-29T19:03:59.102Z,10.39
2018-09-29T19:05:35.034Z,10.37
2018-09-29T19:07:10.981Z,10.42
2018-09-29T19:08:46.647Z,10.42
2018-09-29T19:10:22.384Z,10.30
2018-09-29T19:11:58.024Z,10.52
2018-09-29T19:13:33.654Z,10.36
2018-09-29T19:15:09.750Z,10.46
2018-09-29T19:16:45.314Z,10.56
2018-09-29T19:18:20.841Z,10.51
2018-09-29T19:19:56.343Z,10.47
2018-09-29T19:21:31.862Z,10.37
2018-09-29T19:23:07.432Z,10.27
2018-09-29T19:24:44.436Z,10.17
2018-09-29T19:26:19.856Z,10.20
2018-09-29T19:27:55.424Z,10.20
2018-09-29T19:29:32.185Z,10.20
2018-09-29T19:31:08.216Z,10.10
2018-09-29T19:32:44.202Z,10.12
2018-09-29T19:34:20.113Z,10.12
2018-09-29T19:35:57.238Z,10.08
2018-09-29T19:37:33.038Z,10.13
2018-09-29T19:39:08.867Z,10.14
2018-09-29T19:40:44.375Z,10.16
2018-09-29T19:42:20.260Z,10.18
2018-09-29T19:43:55.962Z,10.10
2018-09-29T19:45:31.607Z,9.98
2018-09-29T19:47:07.765Z,10.01
2018-09-29T19:48:43.384Z,9.98
2018-09-29T19:50:19.592Z,9.96
2018-09-29T19:51:55.199Z,10.03
2018-09-29T19:53:30.835Z,9.95
2018-09-29T19:55:06.664Z,9.94
2018-09-29T19:56:42.124Z,9.97
2018-09-29T19:58:17.677Z,10.01
2018-09-29T19:59:53.282Z,9.87
2018-09-29T20:01:29.799Z,9.86
2018-09-29T20:03:05.512Z,9.90
2018-09-29T20:04:41.992Z,9.68
2018-09-29T20:06:17.526Z,9.73
2018-09-29T20:07:53.498Z,9.71
2018-09-29T20:09:28.993Z,9.80
2018-09-29T20:11:04.514Z,9.81
2018-09-29T20:12:40.212Z,9.68
2018-09-29T20:14:15.697Z,9.60
2018-09-29T20:15:51.236Z,9.67
2018-09-29T20:17:26.780Z,9.66
2018-09-29T20:19:02.340Z,9.60
2018-09-29T20:20:37.875Z,9.56
2018-09-29T20:22:13.675Z,9.54
2018-09-29T20:23:49.197Z,9.50
2018-09-29T20:25:24.703Z,9.42
2018-09-29T20:27:00.292Z,9.51
2018-09-29T20:28:35.780Z,9.46
2018-09-29T20:30:11.236Z,9.43
2018-09-29T20:31:47.352Z,9.50
2018-09-29T20:33:22.862Z,9.33
2018-09-29T20:34:58.701Z,9.30
2018-09-29T20:36:34.741Z,9.32
2018-09-29T20:38:10.277Z,9.40
2018-09-29T20:39:46.067Z,9.52
2018-09-29T20:41:21.611Z,9.47
2018-09-29T20:42:57.171Z,9.45
2018-09-29T20:44:32.880Z,9.36
2018-09-29T20:46:08.479Z,9.37
2018-09-29T20:47:44.000Z,9.33
2018-09-29T20:49:19.509Z,9.30
2018-09-29T20:50:54.919Z,9.31
2018-09-29T20:52:30.487Z,9.31